sensor_id;sensor_type;location;lat;lon;timestamp;pressure;altitude;pressure_sealevel;temperature;humidity
63954;BME280;50128;52.094;5.232;2023-03-19T00:00:07;99053.0;;;1.04;98.22
63954;BME280;50128;52.094;5.232;2023-03-19T00:03:20;99050.0;;;1.21;97.66
63954;BME280;50128;52.094;5.232;2023-03-19T00:04:56;99055.0;;;1.24;97.46
63954;BME280;50128;52.094;5.232;2023-03-19T00:06:33;99049.0;;;1.24;97.4
63954;BME280;50128;52.094;5.232;2023-03-19T00:11:22;99052.0;;;1.05;98.85
63954;BME280;50128;52.094;5.232;2023-03-19T00:12:58;99053.0;;;1.0;99.6
63954;BME280;50128;52.094;5.232;2023-03-19T00:14:34;99053.0;;;1.0;99.85
63954;BME280;50128;52.094;5.232;2023-03-19T00:17:46;99055.0;;;0.92;100.0
63954;BME280;50128;52.094;5.232;2023-03-19T00:19:22;99055.0;;;0.87;100.0
63954;BME280;50128;52.094;5.232;2023-03-19T00:20:58;99057.0;;;0.92;100.0
63954;BME280;50128;52.094;5.232;2023-03-19T00:24:11;99060.0;;;0.93;100.0
63954;BME280;50128;52.094;5.232;2023-03-19T00:25:47;99063.0;;;0.95;100.0
63954;BME280;50128;52.094;5.232;2023-03-19T00:27:23;99064.0;;;0.96;100.0
63954;BME280;50128;52.094;5.232;2023-03-19T00:30:36;99064.0;;;0.93;100.0
63954;BME280;50128;52.094;5.232;2023-03-19T00:32:12;99060.0;;;0.96;100.0
63954;BME280;50128;52.094;5.232;2023-03-19T00:33:48;99065.0;;;0.99;100.0
63954;BME280;50128;52.094;5.232;2023-03-19T00:35:26;99060.0;;;0.88;100.0
63954;BME280;50128;52.094;5.232;2023-03-19T00:38:39;99067.0;;;0.85;100.0
63954;BME280;50128;52.094;5.232;2023-03-19T00:40:15;99067.0;;;0.76;100.0
63954;BME280;50128;52.094;5.232;2023-03-19T00:41:52;99066.0;;;0.76;100.0
63954;BME280;50128;52.094;5.232;2023-03-19T00:45:06;99063.0;;;0.75;100.0
63954;BME280;50128;52.094;5.232;2023-03-19T00:46:42;99068.0;;;0.75;100.0
63954;BME280;50128;52.094;5.232;2023-03-19T00:48:20;99064.0;;;0.64;100.0
63954;BME280;50128;52.094;5.232;2023-03-19T00:51:33;99064.0;;;0.69;100.0
63954;BME280;50128;52.094;5.232;2023-03-19T00:53:09;99063.0;;;0.77;100.0
63954;BME280;50128;52.094;5.232;2023-03-19T00:54:45;99062.0;;;0.62;100.0
63954;BME280;50128;52.094;5.232;2023-03-19T00:56:22;99063.0;;;0.62;100.0
63954;BME280;50128;52.094;5.232;2023-03-19T00:59:35;99065.0;;;0.6;100.0
63954;BME280;50128;52.094;5.232;2023-03-19T01:01:14;99067.0;;;0.51;100.0
63954;BME280;50128;52.094;5.232;2023-03-19T01:02:50;99064.0;;;0.5;100.0
63954;BME280;50128;52.094;5.232;2023-03-19T01:06:04;99067.0;;;0.43;100.0
63954;BME280;50128;52.094;5.232;2023-03-19T01:07:41;99068.0;;;0.45;100.0
63954;BME280;50128;52.094;5.232;2023-03-19T01:09:18;99069.0;;;0.46;100.0
63954;BME280;50128;52.094;5.232;2023-03-19T01:10:55;99065.0;;;0.21;100.0
63954;BME280;50128;52.094;5.232;2023-03-19T01:14:15;99070.0;;;0.11;100.0
63954;BME280;50128;52.094;5.232;2023-03-19T01:15:52;99067.0;;;0.16;100.0
63954;BME280;50128;52.094;5.232;2023-03-19T01:17:28;99066.0;;;0.13;100.0
63954;BME280;50128;52.094;5.232;2023-03-19T01:20:42;99071.0;;;0.06;100.0
63954;BME280;50128;52.094;5.232;2023-03-19T01:22:18;99072.0;;;0.13;100.0
63954;BME280;50128;52.094;5.232;2023-03-19T01:23:55;99070.0;;;0.24;100.0
63954;BME280;50128;52.094;5.232;2023-03-19T01:27:10;99071.0;;;0.2;100.0
63954;BME280;50128;52.094;5.232;2023-03-19T01:28:47;99068.0;;;0.01;100.0
63954;BME280;50128;52.094;5.232;2023-03-19T01:30:23;99067.0;;;0.05;100.0
63954;BME280;50128;52.094;5.232;2023-03-19T01:31:59;99070.0;;;0.15;100.0
63954;BME280;50128;52.094;5.232;2023-03-19T01:35:11;99065.0;;;0.08;100.0
63954;BME280;50128;52.094;5.232;2023-03-19T01:36:48;99065.0;;;0.24;100.0
63954;BME280;50128;52.094;5.232;2023-03-19T01:38:25;99065.0;;;0.4;100.0
63954;BME280;50128;52.094;5.232;2023-03-19T01:41:39;99062.0;;;0.33;100.0
63954;BME280;50128;52.094;5.232;2023-03-19T01:43:17;99061.0;;;0.27;100.0
63954;BME280;50128;52.094;5.232;2023-03-19T01:44:55;99058.0;;;0.26;100.0
63954;BME280;50128;52.094;5.232;2023-03-19T01:46:33;99059.0;;;0.25;100.0
63954;BME280;50128;52.094;5.232;2023-03-19T01:49:59;99062.0;;;0.32;100.0
63954;BME280;50128;52.094;5.232;2023-03-19T01:51:39;99064.0;;;0.26;100.0
63954;BME280;50128;52.094;5.232;2023-03-19T01:53:18;99057.0;;;0.17;100.0
63954;BME280;50128;52.094;5.232;2023-03-19T01:54:58;99061.0;;;0.15;100.0
63954;BME280;50128;52.094;5.232;2023-03-19T01:58:16;99056.0;;;0.39;100.0
63954;BME280;50128;52.094;5.232;2023-03-19T01:59:55;99058.0;;;0.43;100.0
63954;BME280;50128;52.094;5.232;2023-03-19T02:01:39;99058.0;;;0.32;100.0
63954;BME280;50128;52.094;5.232;2023-03-19T02:03:21;99056.0;;;0.4;100.0
63954;BME280;50128;52.094;5.232;2023-03-19T02:06:42;99058.0;;;0.36;100.0
63954;BME280;50128;52.094;5.232;2023-03-19T02:08:20;99060.0;;;0.29;100.0
63954;BME280;50128;52.094;5.232;2023-03-19T02:09:59;99060.0;;;0.39;100.0
63954;BME280;50128;52.094;5.232;2023-03-19T02:11:37;99064.0;;;0.16;100.0
63954;BME280;50128;52.094;5.232;2023-03-19T02:14:51;99067.0;;;0.05;100.0
63954;BME280;50128;52.094;5.232;2023-03-19T02:16:28;99062.0;;;-0.04;100.0
63954;BME280;50128;52.094;5.232;2023-03-19T02:18:05;99065.0;;;-0.09;100.0
63954;BME280;50128;52.094;5.232;2023-03-19T02:21:26;99061.0;;;0.03;100.0
63954;BME280;50128;52.094;5.232;2023-03-19T02:23:10;99059.0;;;0.06;100.0
63954;BME280;50128;52.094;5.232;2023-03-19T02:24:52;99060.0;;;0.02;100.0
63954;BME280;50128;52.094;5.232;2023-03-19T02:26:32;99057.0;;;-0.1;100.0
63954;BME280;50128;52.094;5.232;2023-03-19T02:29:46;99057.0;;;-0.16;100.0
63954;BME280;50128;52.094;5.232;2023-03-19T02:31:22;99058.0;;;-0.06;100.0
63954;BME280;50128;52.094;5.232;2023-03-19T02:32:59;99055.0;;;-0.03;100.0
63954;BME280;50128;52.094;5.232;2023-03-19T02:34:38;99056.0;;;-0.03;100.0
63954;BME280;50128;52.094;5.232;2023-03-19T02:37:54;99055.0;;;-0.17;100.0
63954;BME280;50128;52.094;5.232;2023-03-19T02:39:33;99055.0;;;-0.24;100.0
63954;BME280;50128;52.094;5.232;2023-03-19T02:41:13;99060.0;;;-0.26;100.0
63954;BME280;50128;52.094;5.232;2023-03-19T02:44:26;99062.0;;;-0.19;100.0
63954;BME280;50128;52.094;5.232;2023-03-19T02:46:06;99060.0;;;-0.25;100.0
63954;BME280;50128;52.094;5.232;2023-03-19T02:47:44;99057.0;;;-0.26;100.0
63954;BME280;50128;52.094;5.232;2023-03-19T02:49:20;99060.0;;;-0.24;100.0
63954;BME280;50128;52.094;5.232;2023-03-19T02:52:34;99062.0;;;-0.39;100.0
63954;BME280;50128;52.094;5.232;2023-03-19T02:54:11;99066.0;;;-0.43;100.0
63954;BME280;50128;52.094;5.232;2023-03-19T02:55:49;99062.0;;;-0.51;100.0
63954;BME280;50128;52.094;5.232;2023-03-19T02:59:03;99065.0;;;-0.42;100.0
63954;BME280;50128;52.094;5.232;2023-03-19T03:00:39;99068.0;;;-0.47;100.0
63954;BME280;50128;52.094;5.232;2023-03-19T03:02:17;99069.0;;;-0.53;100.0
63954;BME280;50128;52.094;5.232;2023-03-19T03:03:54;99065.0;;;-0.56;100.0
63954;BME280;50128;52.094;5.232;2023-03-19T03:07:09;99061.0;;;-0.49;100.0
63954;BME280;50128;52.094;5.232;2023-03-19T03:08:46;99060.0;;;-0.54;100.0
63954;BME280;50128;52.094;5.232;2023-03-19T03:10:23;99055.0;;;-0.54;100.0
63954;BME280;50128;52.094;5.232;2023-03-19T03:13:36;99056.0;;;-0.53;100.0
63954;BME280;50128;52.094;5.232;2023-03-19T03:15:12;99058.0;;;-0.54;100.0
63954;BME280;50128;52.094;5.232;2023-03-19T03:16:48;99055.0;;;-0.48;100.0
63954;BME280;50128;52.094;5.232;2023-03-19T03:20:02;99053.0;;;-0.57;100.0
63954;BME280;50128;52.094;5.232;2023-03-19T03:21:39;99051.0;;;-0.66;100.0
63954;BME280;50128;52.094;5.232;2023-03-19T03:23:15;99055.0;;;-0.71;100.0
63954;BME280;50128;52.094;5.232;2023-03-19T03:24:51;99053.0;;;-0.71;100.0
63954;BME280;50128;52.094;5.232;2023-03-19T03:28:03;99052.0;;;-0.63;100.0
63954;BME280;50128;52.094;5.232;2023-03-19T03:29:40;99055.0;;;-0.71;100.0
63954;BME280;50128;52.094;5.232;2023-03-19T03:31:16;99050.0;;;-0.78;100.0
63954;BME280;50128;52.094;5.232;2023-03-19T03:34:29;99048.0;;;-0.87;100.0
63954;BME280;50128;52.094;5.232;2023-03-19T03:36:06;99044.0;;;-0.85;100.0
63954;BME280;50128;52.094;5.232;2023-03-19T03:37:43;99045.0;;;-0.87;100.0
63954;BME280;50128;52.094;5.232;2023-03-19T03:40:55;99047.0;;;-0.75;100.0
63954;BME280;50128;52.094;5.232;2023-03-19T03:42:33;99051.0;;;-0.83;100.0
63954;BME280;50128;52.094;5.232;2023-03-19T03:44:09;99050.0;;;-0.86;100.0
63954;BME280;50128;52.094;5.232;2023-03-19T03:45:47;99049.0;;;-0.96;100.0
63954;BME280;50128;52.094;5.232;2023-03-19T03:48:59;99047.0;;;-1.04;100.0
63954;BME280;50128;52.094;5.232;2023-03-19T03:50:37;99042.0;;;-1.15;100.0
63954;BME280;50128;52.094;5.232;2023-03-19T03:52:14;99040.0;;;-1.18;100.0
63954;BME280;50128;52.094;5.232;2023-03-19T03:55:26;99037.0;;;-1.21;100.0
63954;BME280;50128;52.094;5.232;2023-03-19T03:57:03;99034.0;;;-1.21;100.0
63954;BME280;50128;52.094;5.232;2023-03-19T03:58:40;99027.0;;;-1.31;100.0
63954;BME280;50128;52.094;5.232;2023-03-19T04:01:53;99019.0;;;-1.23;100.0
63954;BME280;50128;52.094;5.232;2023-03-19T04:03:29;99018.0;;;-1.45;100.0
63954;BME280;50128;52.094;5.232;2023-03-19T04:05:07;99008.0;;;-1.52;100.0
63954;BME280;50128;52.094;5.232;2023-03-19T04:06:43;99014.0;;;-1.63;100.0
63954;BME280;50128;52.094;5.232;2023-03-19T04:09:56;99011.0;;;-1.69;100.0
63954;BME280;50128;52.094;5.232;2023-03-19T04:11:33;99012.0;;;-1.76;100.0
63954;BME280;50128;52.094;5.232;2023-03-19T04:13:11;99006.0;;;-1.89;100.0
63954;BME280;50128;52.094;5.232;2023-03-19T04:16:24;99009.0;;;-1.89;100.0
63954;BME280;50128;52.094;5.232;2023-03-19T04:18:01;99008.0;;;-1.91;100.0
63954;BME280;50128;52.094;5.232;2023-03-19T04:19:38;99008.0;;;-1.73;100.0
63954;BME280;50128;52.094;5.232;2023-03-19T04:22:51;99008.0;;;-1.87;100.0
63954;BME280;50128;52.094;5.232;2023-03-19T04:24:28;98984.0;;;-2.09;100.0
63954;BME280;50128;52.094;5.232;2023-03-19T04:26:05;98980.0;;;-2.14;100.0
63954;BME280;50128;52.094;5.232;2023-03-19T04:27:41;98977.0;;;-2.2;100.0
63954;BME280;50128;52.094;5.232;2023-03-19T04:30:57;98975.0;;;-2.25;100.0
63954;BME280;50128;52.094;5.232;2023-03-19T04:32:35;98974.0;;;-2.36;100.0
63954;BME280;50128;52.094;5.232;2023-03-19T04:34:11;98977.0;;;-2.34;100.0
63954;BME280;50128;52.094;5.232;2023-03-19T04:37:23;98977.0;;;-2.38;100.0
63954;BME280;50128;52.094;5.232;2023-03-19T04:38:59;98976.0;;;-2.34;100.0
63954;BME280;50128;52.094;5.232;2023-03-19T04:40:35;98984.0;;;-2.34;100.0
63954;BME280;50128;52.094;5.232;2023-03-19T04:43:49;98983.0;;;-2.35;100.0
63954;BME280;50128;52.094;5.232;2023-03-19T04:45:25;98983.0;;;-2.37;100.0
63954;BME280;50128;52.094;5.232;2023-03-19T04:47:02;98981.0;;;-2.34;100.0
63954;BME280;50128;52.094;5.232;2023-03-19T04:48:38;98976.0;;;-2.37;100.0
63954;BME280;50128;52.094;5.232;2023-03-19T04:51:50;98983.0;;;-2.4;100.0
63954;BME280;50128;52.094;5.232;2023-03-19T04:53:26;98981.0;;;-2.39;100.0
63954;BME280;50128;52.094;5.232;2023-03-19T04:55:06;98982.0;;;-2.5;100.0
63954;BME280;50128;52.094;5.232;2023-03-19T04:58:20;98990.0;;;-2.43;100.0
63954;BME280;50128;52.094;5.232;2023-03-19T04:59:57;98994.0;;;-2.58;100.0
63954;BME280;50128;52.094;5.232;2023-03-19T05:01:33;98997.0;;;-2.62;100.0
63954;BME280;50128;52.094;5.232;2023-03-19T05:03:09;98999.0;;;-2.71;100.0
63954;BME280;50128;52.094;5.232;2023-03-19T05:06:22;99005.0;;;-2.82;100.0
63954;BME280;50128;52.094;5.232;2023-03-19T05:07:58;99005.0;;;-2.91;100.0
63954;BME280;50128;52.094;5.232;2023-03-19T05:09:34;99005.0;;;-2.89;100.0
63954;BME280;50128;52.094;5.232;2023-03-19T05:12:47;99007.0;;;-2.79;100.0
63954;BME280;50128;52.094;5.232;2023-03-19T05:14:24;99010.0;;;-2.83;100.0
63954;BME280;50128;52.094;5.232;2023-03-19T05:16:00;99009.0;;;-2.87;100.0
63954;BME280;50128;52.094;5.232;2023-03-19T05:19:13;99012.0;;;-3.0;100.0
63954;BME280;50128;52.094;5.232;2023-03-19T05:20:49;99016.0;;;-3.09;100.0
63954;BME280;50128;52.094;5.232;2023-03-19T05:22:27;99019.0;;;-3.02;100.0
63954;BME280;50128;52.094;5.232;2023-03-19T05:24:04;99020.0;;;-3.03;100.0
63954;BME280;50128;52.094;5.232;2023-03-19T05:27:16;99019.0;;;-3.07;100.0
63954;BME280;50128;52.094;5.232;2023-03-19T05:28:54;99023.0;;;-3.04;100.0
63954;BME280;50128;52.094;5.232;2023-03-19T05:30:30;99026.0;;;-3.19;100.0
63954;BME280;50128;52.094;5.232;2023-03-19T05:33:44;99027.0;;;-3.17;100.0
63954;BME280;50128;52.094;5.232;2023-03-19T05:35:21;99030.0;;;-3.29;100.0
63954;BME280;50128;52.094;5.232;2023-03-19T05:36:57;99031.0;;;-3.28;100.0
63954;BME280;50128;52.094;5.232;2023-03-19T05:40:11;99028.0;;;-3.29;100.0
63954;BME280;50128;52.094;5.232;2023-03-19T05:41:48;99033.0;;;-3.28;100.0
63954;BME280;50128;52.094;5.232;2023-03-19T05:45:02;99045.0;;;-3.25;100.0
63954;BME280;50128;52.094;5.232;2023-03-19T05:48:16;99045.0;;;-3.24;100.0
63954;BME280;50128;52.094;5.232;2023-03-19T05:49:52;99046.0;;;-3.1;100.0
63954;BME280;50128;52.094;5.232;2023-03-19T05:51:29;99050.0;;;-3.08;100.0
63954;BME280;50128;52.094;5.232;2023-03-19T05:54:43;99055.0;;;-3.0;100.0
63954;BME280;50128;52.094;5.232;2023-03-19T05:56:20;99055.0;;;-3.02;100.0
63954;BME280;50128;52.094;5.232;2023-03-19T05:57:56;99055.0;;;-3.0;100.0
63954;BME280;50128;52.094;5.232;2023-03-19T06:01:09;99055.0;;;-3.03;100.0
63954;BME280;50128;52.094;5.232;2023-03-19T06:02:46;99053.0;;;-2.97;100.0
63954;BME280;50128;52.094;5.232;2023-03-19T06:04:22;99050.0;;;-2.96;100.0
63954;BME280;50128;52.094;5.232;2023-03-19T06:05:59;99050.0;;;-2.83;100.0
63954;BME280;50128;52.094;5.232;2023-03-19T06:09:12;99047.0;;;-2.86;100.0
63954;BME280;50128;52.094;5.232;2023-03-19T06:10:48;99052.0;;;-2.96;100.0
63954;BME280;50128;52.094;5.232;2023-03-19T06:12:27;99051.0;;;-2.91;100.0
63954;BME280;50128;52.094;5.232;2023-03-19T06:15:41;99055.0;;;-2.77;100.0
63954;BME280;50128;52.094;5.232;2023-03-19T06:17:18;99065.0;;;-2.82;100.0
63954;BME280;50128;52.094;5.232;2023-03-19T06:18:54;99067.0;;;-2.73;100.0
63954;BME280;50128;52.094;5.232;2023-03-19T06:22:07;99066.0;;;-2.62;100.0
63954;BME280;50128;52.094;5.232;2023-03-19T06:23:44;99064.0;;;-2.62;100.0
63954;BME280;50128;52.094;5.232;2023-03-19T06:25:20;99069.0;;;-2.66;100.0
63954;BME280;50128;52.094;5.232;2023-03-19T06:26:57;99071.0;;;-2.65;100.0
63954;BME280;50128;52.094;5.232;2023-03-19T06:30:12;99068.0;;;-2.63;100.0
63954;BME280;50128;52.094;5.232;2023-03-19T06:31:49;99064.0;;;-2.64;100.0
63954;BME280;50128;52.094;5.232;2023-03-19T06:33:25;99071.0;;;-2.46;100.0
63954;BME280;50128;52.094;5.232;2023-03-19T06:36:40;99077.0;;;-2.63;100.0
63954;BME280;50128;52.094;5.232;2023-03-19T06:38:16;99073.0;;;-2.62;100.0
63954;BME280;50128;52.094;5.232;2023-03-19T06:39:53;99074.0;;;-2.76;100.0
63954;BME280;50128;52.094;5.232;2023-03-19T06:41:29;99076.0;;;-2.65;100.0
63954;BME280;50128;52.094;5.232;2023-03-19T06:44:42;99082.0;;;-2.79;100.0
63954;BME280;50128;52.094;5.232;2023-03-19T06:46:19;99084.0;;;-2.83;100.0
63954;BME280;50128;52.094;5.232;2023-03-19T06:47:55;99094.0;;;-2.84;100.0
63954;BME280;50128;52.094;5.232;2023-03-19T06:51:09;99097.0;;;-2.81;100.0
63954;BME280;50128;52.094;5.232;2023-03-19T06:52:45;99099.0;;;-2.82;100.0
63954;BME280;50128;52.094;5.232;2023-03-19T06:54:22;99103.0;;;-2.87;100.0
63954;BME280;50128;52.094;5.232;2023-03-19T06:57:36;99101.0;;;-2.92;100.0
63954;BME280;50128;52.094;5.232;2023-03-19T06:59:12;99100.0;;;-2.88;100.0
63954;BME280;50128;52.094;5.232;2023-03-19T07:00:48;99103.0;;;-2.85;100.0
63954;BME280;50128;52.094;5.232;2023-03-19T07:02:25;99101.0;;;-2.88;100.0
63954;BME280;50128;52.094;5.232;2023-03-19T07:05:38;99099.0;;;-2.83;100.0
63954;BME280;50128;52.094;5.232;2023-03-19T07:07:15;99105.0;;;-2.81;100.0
63954;BME280;50128;52.094;5.232;2023-03-19T07:08:53;99109.0;;;-2.72;100.0
63954;BME280;50128;52.094;5.232;2023-03-19T07:12:07;99114.0;;;-2.78;100.0
63954;BME280;50128;52.094;5.232;2023-03-19T07:13:44;99116.0;;;-2.7;100.0
63954;BME280;50128;52.094;5.232;2023-03-19T07:15:21;99109.0;;;-2.75;100.0
63954;BME280;50128;52.094;5.232;2023-03-19T07:18:34;99113.0;;;-2.78;100.0
63954;BME280;50128;52.094;5.232;2023-03-19T07:20:12;99115.0;;;-2.84;100.0
63954;BME280;50128;52.094;5.232;2023-03-19T07:21:50;99123.0;;;-2.83;100.0
63954;BME280;50128;52.094;5.232;2023-03-19T07:23:26;99127.0;;;-2.84;100.0
63954;BME280;50128;52.094;5.232;2023-03-19T07:26:39;99131.0;;;-2.83;100.0
63954;BME280;50128;52.094;5.232;2023-03-19T07:28:17;99137.0;;;-2.78;100.0
63954;BME280;50128;52.094;5.232;2023-03-19T07:29:53;99139.0;;;-2.73;100.0
63954;BME280;50128;52.094;5.232;2023-03-19T07:33:06;99139.0;;;-2.79;100.0
63954;BME280;50128;52.094;5.232;2023-03-19T07:34:43;99140.0;;;-2.69;100.0
63954;BME280;50128;52.094;5.232;2023-03-19T07:36:19;99141.0;;;-2.62;100.0
63954;BME280;50128;52.094;5.232;2023-03-19T07:39:32;99140.0;;;-2.69;100.0
63954;BME280;50128;52.094;5.232;2023-03-19T07:41:09;99147.0;;;-2.76;100.0
63954;BME280;50128;52.094;5.232;2023-03-19T07:42:45;99148.0;;;-2.6;100.0
63954;BME280;50128;52.094;5.232;2023-03-19T07:44:22;99155.0;;;-2.6;100.0
63954;BME280;50128;52.094;5.232;2023-03-19T07:47:36;99155.0;;;-2.62;100.0
63954;BME280;50128;52.094;5.232;2023-03-19T07:49:12;99155.0;;;-2.68;100.0
63954;BME280;50128;52.094;5.232;2023-03-19T07:50:49;99153.0;;;-2.63;100.0
63954;BME280;50128;52.094;5.232;2023-03-19T07:54:03;99155.0;;;-2.53;100.0
63954;BME280;50128;52.094;5.232;2023-03-19T07:55:40;99155.0;;;-2.46;100.0
63954;BME280;50128;52.094;5.232;2023-03-19T07:57:18;99158.0;;;-2.64;100.0
63954;BME280;50128;52.094;5.232;2023-03-19T07:58:54;99161.0;;;-2.72;100.0
63954;BME280;50128;52.094;5.232;2023-03-19T08:02:09;99160.0;;;-2.64;100.0
63954;BME280;50128;52.094;5.232;2023-03-19T08:03:46;99162.0;;;-2.69;100.0
63954;BME280;50128;52.094;5.232;2023-03-19T08:05:23;99167.0;;;-2.7;100.0
63954;BME280;50128;52.094;5.232;2023-03-19T08:08:36;99173.0;;;-2.63;100.0
63954;BME280;50128;52.094;5.232;2023-03-19T08:10:13;99172.0;;;-2.58;100.0
63954;BME280;50128;52.094;5.232;2023-03-19T08:11:49;99172.0;;;-2.58;100.0
63954;BME280;50128;52.094;5.232;2023-03-19T08:15:03;99170.0;;;-2.57;100.0
63954;BME280;50128;52.094;5.232;2023-03-19T08:16:39;99172.0;;;-2.56;100.0
63954;BME280;50128;52.094;5.232;2023-03-19T08:18:16;99175.0;;;-2.6;100.0
63954;BME280;50128;52.094;5.232;2023-03-19T08:19:52;99177.0;;;-2.54;100.0
63954;BME280;50128;52.094;5.232;2023-03-19T08:23:04;99178.0;;;-2.44;100.0
63954;BME280;50128;52.094;5.232;2023-03-19T08:24:41;99181.0;;;-2.41;100.0
63954;BME280;50128;52.094;5.232;2023-03-19T08:26:17;99182.0;;;-2.4;100.0
63954;BME280;50128;52.094;5.232;2023-03-19T08:29:30;99180.0;;;-2.31;100.0
63954;BME280;50128;52.094;5.232;2023-03-19T08:31:07;99181.0;;;-2.24;100.0
63954;BME280;50128;52.094;5.232;2023-03-19T08:32:44;99180.0;;;-2.28;100.0
63954;BME280;50128;52.094;5.232;2023-03-19T08:36:04;99178.0;;;-2.31;100.0
63954;BME280;50128;52.094;5.232;2023-03-19T08:37:41;99177.0;;;-2.35;100.0
63954;BME280;50128;52.094;5.232;2023-03-19T08:39:18;99184.0;;;-2.24;100.0
63954;BME280;50128;52.094;5.232;2023-03-19T08:40:54;99186.0;;;-2.11;100.0
63954;BME280;50128;52.094;5.232;2023-03-19T08:44:07;99187.0;;;-2.0;100.0
63954;BME280;50128;52.094;5.232;2023-03-19T08:45:44;99195.0;;;-1.76;100.0
63954;BME280;50128;52.094;5.232;2023-03-19T08:47:21;99199.0;;;-1.85;100.0
63954;BME280;50128;52.094;5.232;2023-03-19T08:50:35;99201.0;;;-1.85;100.0
63954;BME280;50128;52.094;5.232;2023-03-19T08:52:12;99205.0;;;-1.99;100.0
63954;BME280;50128;52.094;5.232;2023-03-19T08:53:48;99209.0;;;-1.99;100.0
63954;BME280;50128;52.094;5.232;2023-03-19T08:55:24;99217.0;;;-1.95;100.0
63954;BME280;50128;52.094;5.232;2023-03-19T08:58:36;99211.0;;;-2.12;100.0
63954;BME280;50128;52.094;5.232;2023-03-19T09:00:14;99213.0;;;-2.12;100.0
63954;BME280;50128;52.094;5.232;2023-03-19T09:01:52;99212.0;;;-2.14;100.0
63954;BME280;50128;52.094;5.232;2023-03-19T09:05:06;99216.0;;;-2.24;100.0
63954;BME280;50128;52.094;5.232;2023-03-19T09:06:43;99220.0;;;-2.27;100.0
63954;BME280;50128;52.094;5.232;2023-03-19T09:08:19;99222.0;;;-2.24;100.0
63954;BME280;50128;52.094;5.232;2023-03-19T09:11:31;99221.0;;;-2.23;100.0
63954;BME280;50128;52.094;5.232;2023-03-19T09:13:07;99222.0;;;-2.39;100.0
63954;BME280;50128;52.094;5.232;2023-03-19T09:14:44;99225.0;;;-2.41;100.0
63954;BME280;50128;52.094;5.232;2023-03-19T09:16:20;99227.0;;;-2.43;100.0
63954;BME280;50128;52.094;5.232;2023-03-19T09:19:33;99236.0;;;-2.45;100.0
63954;BME280;50128;52.094;5.232;2023-03-19T09:21:10;99235.0;;;-2.4;100.0
63954;BME280;50128;52.094;5.232;2023-03-19T09:22:46;99236.0;;;-2.43;100.0
63954;BME280;50128;52.094;5.232;2023-03-19T09:25:58;99230.0;;;-2.45;100.0
63954;BME280;50128;52.094;5.232;2023-03-19T09:27:36;99232.0;;;-2.25;100.0
63954;BME280;50128;52.094;5.232;2023-03-19T09:29:13;99231.0;;;-2.16;100.0
63954;BME280;50128;52.094;5.232;2023-03-19T09:32:28;99235.0;;;-2.17;100.0
63954;BME280;50128;52.094;5.232;2023-03-19T09:34:04;99242.0;;;-2.25;100.0
63954;BME280;50128;52.094;5.232;2023-03-19T09:35:42;99246.0;;;-2.22;100.0
63954;BME280;50128;52.094;5.232;2023-03-19T09:37:18;99243.0;;;-2.22;100.0
63954;BME280;50128;52.094;5.232;2023-03-19T09:40:34;99246.0;;;-2.23;100.0
63954;BME280;50128;52.094;5.232;2023-03-19T09:42:23;99249.0;;;-2.16;100.0
63954;BME280;50128;52.094;5.232;2023-03-19T09:44:10;99247.0;;;-2.18;100.0
63954;BME280;50128;52.094;5.232;2023-03-19T09:45:47;99253.0;;;-2.14;100.0
63954;BME280;50128;52.094;5.232;2023-03-19T09:49:11;99253.0;;;-2.19;100.0
63954;BME280;50128;52.094;5.232;2023-03-19T09:50:51;99258.0;;;-2.2;100.0
63954;BME280;50128;52.094;5.232;2023-03-19T09:52:34;99260.0;;;-2.2;100.0
63954;BME280;50128;52.094;5.232;2023-03-19T09:54:26;99263.0;;;-2.18;100.0
63954;BME280;50128;52.094;5.232;2023-03-19T09:56:04;99267.0;;;-2.27;100.0
63954;BME280;50128;52.094;5.232;2023-03-19T09:59:20;99273.0;;;-2.18;100.0
63954;BME280;50128;52.094;5.232;2023-03-19T10:01:00;99273.0;;;-2.15;100.0
63954;BME280;50128;52.094;5.232;2023-03-19T10:02:40;99275.0;;;-2.08;100.0
63954;BME280;50128;52.094;5.232;2023-03-19T10:06:29;99275.0;;;-1.99;100.0
63954;BME280;50128;52.094;5.232;2023-03-19T10:10:17;99277.0;;;-2.04;100.0
63954;BME280;50128;52.094;5.232;2023-03-19T10:12:18;99280.0;;;-1.88;100.0
63954;BME280;50128;52.094;5.232;2023-03-19T10:14:11;99281.0;;;-1.93;100.0
63954;BME280;50128;52.094;5.232;2023-03-19T10:15:58;99280.0;;;-2.01;100.0
63954;BME280;50128;52.094;5.232;2023-03-19T10:17:39;99278.0;;;-1.75;100.0
63954;BME280;50128;52.094;5.232;2023-03-19T10:19:35;99283.0;;;-1.54;100.0
63954;BME280;50128;52.094;5.232;2023-03-19T10:21:18;99280.0;;;-1.69;100.0
63954;BME280;50128;52.094;5.232;2023-03-19T10:24:46;99285.0;;;-1.53;100.0
63954;BME280;50128;52.094;5.232;2023-03-19T10:26:28;99288.0;;;-1.5;100.0
63954;BME280;50128;52.094;5.232;2023-03-19T10:28:13;99295.0;;;-1.44;100.0
63954;BME280;50128;52.094;5.232;2023-03-19T10:29:49;99297.0;;;-1.57;100.0
63954;BME280;50128;52.094;5.232;2023-03-19T10:33:13;99296.0;;;-1.5;100.0
63954;BME280;50128;52.094;5.232;2023-03-19T10:34:57;99290.0;;;-1.69;100.0
63954;BME280;50128;52.094;5.232;2023-03-19T10:36:36;99291.0;;;-1.84;100.0
63954;BME280;50128;52.094;5.232;2023-03-19T10:38:19;99288.0;;;-1.88;100.0
63954;BME280;50128;52.094;5.232;2023-03-19T10:39:57;99293.0;;;-1.61;100.0
63954;BME280;50128;52.094;5.232;2023-03-19T10:43:24;99295.0;;;-1.68;100.0
63954;BME280;50128;52.094;5.232;2023-03-19T10:45:04;99299.0;;;-1.74;100.0
63954;BME280;50128;52.094;5.232;2023-03-19T10:46:57;99302.0;;;-1.72;100.0
63954;BME280;50128;52.094;5.232;2023-03-19T10:48:42;99305.0;;;-1.63;100.0
63954;BME280;50128;52.094;5.232;2023-03-19T10:53:40;99313.0;;;-1.67;100.0
63954;BME280;50128;52.094;5.232;2023-03-19T10:55:22;99315.0;;;-1.66;100.0
63954;BME280;50128;52.094;5.232;2023-03-19T10:57:00;99313.0;;;-1.66;100.0
63954;BME280;50128;52.094;5.232;2023-03-19T11:00:17;99320.0;;;-1.59;100.0
63954;BME280;50128;52.094;5.232;2023-03-19T11:01:56;99320.0;;;-1.69;100.0
63954;BME280;50128;52.094;5.232;2023-03-19T11:03:35;99327.0;;;-1.65;100.0
63954;BME280;50128;52.094;5.232;2023-03-19T11:05:22;99328.0;;;-1.71;100.0
63954;BME280;50128;52.094;5.232;2023-03-19T11:08:52;99335.0;;;-1.64;100.0
63954;BME280;50128;52.094;5.232;2023-03-19T11:10:32;99338.0;;;-1.62;100.0
63954;BME280;50128;52.094;5.232;2023-03-19T11:12:17;99336.0;;;-1.6;100.0
63954;BME280;50128;52.094;5.232;2023-03-19T11:13:55;99334.0;;;-1.61;100.0
63954;BME280;50128;52.094;5.232;2023-03-19T11:15:33;99331.0;;;-1.71;100.0
63954;BME280;50128;52.094;5.232;2023-03-19T11:18:55;99328.0;;;-1.69;100.0
63954;BME280;50128;52.094;5.232;2023-03-19T11:20:33;99332.0;;;-1.65;100.0
63954;BME280;50128;52.094;5.232;2023-03-19T11:22:15;99330.0;;;-1.67;100.0
63954;BME280;50128;52.094;5.232;2023-03-19T11:23:58;99330.0;;;-1.71;100.0